Time;durP1;ratioP1;P1;durP2;ratioP2;P2;SDS_P1;SDS_P2;PMS_P1;PMS_P2;Temp;Humidity;BMP_temperature;BMP_pressure;BME280_temperature;BME280_humidity;BME280_pressure;Samples;Min_cycle;Max_cycle;Signal;HPM_P1;HPM_P2
2021/08/28 00:00:14;;;;;;;;;;;;;;;12.51;84.50;96925.66;30001;983;1880;-57
2021/08/28 00:00:50;;;;;;;;;;;;;;;12.51;84.13;96922.94;30001;983;1884;-67
2021/08/28 00:01:21;;;;;;;;;;;;;;;12.53;84.28;96917.19;30001;983;1880;-66
2021/08/28 00:01:55;;;;;;;;;;;;;;;12.53;84.10;96925.38;30001;982;1884;-68
2021/08/28 00:02:26;;;;;;;;;;;;;;;12.52;84.27;96921.84;30001;982;1880;-56
2021/08/28 00:02:57;;;;;;;;;;;;;;;12.53;84.44;96925.38;30001;982;1867;-65
2021/08/28 00:03:28;;;;;;;;;;;;;;;12.50;84.11;96917.81;30001;982;1876;-65
2021/08/28 00:03:59;;;;;;;;;;;;;;;12.49;84.51;96917.00;30001;982;1884;-63
2021/08/28 00:04:33;;;;;;;;;;;;;;;12.48;84.30;96917.31;30001;983;1879;-55
2021/08/28 00:05:05;;;;;;;;;;;;;;;12.46;84.40;96923.06;30001;983;1884;-66
2021/08/28 00:05:35;;;;;;;;;;;;;;;12.45;84.74;96921.47;30001;983;1879;-56
2021/08/28 00:06:06;;;;;;;;;;;;;;;12.46;84.76;96914.91;30001;983;1866;-64
2021/08/28 00:06:37;;;;;;;;;;;;;;;12.44;85.14;96922.56;30001;983;1875;-58
2021/08/28 00:07:08;;;;;;;;;;;;;;;12.42;85.21;96924.78;30001;983;1884;-55
2021/08/28 00:07:39;;;;;;;;;;;;;;;12.43;85.03;96920.97;30001;983;1862;-57
2021/08/28 00:08:10;;;;;;;;;;;;;;;12.41;84.85;96923.97;30001;983;1880;-66
2021/08/28 00:08:41;;;;;;;;;;;;;;;12.42;85.01;96919.34;30001;983;1880;-64
2021/08/28 00:09:12;;;;;;;;;;;;;;;12.42;84.98;96919.34;30001;982;1884;-65
2021/08/28 00:09:43;;;;;;;;;;;;;;;12.41;85.01;96917.72;30001;982;1880;-65
2021/08/28 00:10:14;;;;;;;;;;;;;;;12.41;85.12;96923.19;30001;982;1884;-64
2021/08/28 00:10:45;;;;;;;;;;;;;;;12.40;85.19;96921.56;30001;982;1880;-56
2021/08/28 00:11:16;;;;;;;;;;;;;;;12.40;85.02;96924.28;30001;982;1884;-65
2021/08/28 00:11:50;;;;;;;;;;;;;;;12.39;85.15;96914.50;30001;983;1879;-57
2021/08/28 00:12:21;;;;;;;;;;;;;;;12.41;85.21;96918.53;30001;983;1884;-56
2021/08/28 00:12:52;;;;;;;;;;;;;;;12.44;84.95;96921.75;30001;983;1862;-56
2021/08/28 00:13:23;;;;;;;;;;;;;;;12.44;85.22;96928.00;30001;983;1879;-57
2021/08/28 00:13:54;;;;;;;;;;;;;;;12.43;85.10;96920.97;30001;983;1879;-64
2021/08/28 00:14:26;;;;;;;;;;;;;;;12.43;85.24;96920.16;30001;983;1884;-59
2021/08/28 00:14:57;;;;;;;;;;;;;;;12.43;85.34;96920.16;30001;983;1879;-64
2021/08/28 00:15:28;;;;;;;;;;;;;;;12.42;85.60;96913.91;30001;983;1884;-65
2021/08/28 00:15:59;;;;;;;;;;;;;;;12.40;85.59;96922.37;30001;982;1880;-66
2021/08/28 00:16:31;;;;;;;;;;;;;;;12.40;85.57;96914.22;30001;982;1884;-66
2021/08/28 00:17:02;;;;;;;;;;;;;;;12.40;85.63;96921.56;30001;982;1880;-56
2021/08/28 00:17:34;;;;;;;;;;;;;;;12.41;85.81;96923.19;30001;982;1867;-56
2021/08/28 00:18:05;;;;;;;;;;;;;;;12.42;85.46;96919.34;30001;982;1858;-57
2021/08/28 00:18:36;;;;;;;;;;;;;;;12.42;85.56;96919.34;30001;982;1884;-57
2021/08/28 00:19:08;;;;;;;;;;;;;;;12.41;85.72;96910.38;30001;982;1880;-58
2021/08/28 00:19:39;;;;;;;;;;;;;;;12.40;85.73;96913.41;30001;983;1884;-57
2021/08/28 00:20:11;;;;;;;;;;;;;;;12.39;85.97;96919.94;30001;983;1879;-57
2021/08/28 00:20:44;;;;;;;;;;;;;;;12.38;85.75;96918.34;30001;983;1884;-58
2021/08/28 00:21:15;;;;;;;;;;;;;;;12.37;85.93;96922.97;30001;983;1879;-57
2021/08/28 00:21:46;;;;;;;;;;;;;;;12.36;85.86;96915.91;30001;983;1884;-65
2021/08/28 00:22:17;;;;;;;;;;;;;;;12.37;85.67;96914.00;30001;983;1862;-59
2021/08/28 00:22:47;;;;;;;;;;;;;;;12.37;85.63;96919.44;30001;983;1880;-64
2021/08/28 00:23:18;;;;;;;;;;;;;;;12.37;86.04;96924.88;30001;983;1880;-66
2021/08/28 00:23:49;;;;;;;;;;;;;;;12.36;85.73;96920.56;30001;982;1884;-63
2021/08/28 00:24:21;;;;;;;;;;;;;;;12.35;86.01;96914.31;30001;982;1880;-57
2021/08/28 00:24:55;;;;;;;;;;;;;;;12.36;85.96;96921.37;30001;982;1884;-57
2021/08/28 00:25:26;;;;;;;;;;;;;;;12.39;85.66;96919.94;30001;982;1880;-64
2021/08/28 00:25:57;;;;;;;;;;;;;;;12.39;85.49;96925.41;30001;982;1867;-64
2021/08/28 00:26:28;;;;;;;;;;;;;;;12.40;85.09;96922.37;30001;982;1876;-58
2021/08/28 00:26:59;;;;;;;;;;;;;;;12.39;85.43;96922.66;30001;983;1866;-57
2021/08/28 00:27:31;;;;;;;;;;;;;;;12.39;85.04;96925.41;30001;983;1857;-64
2021/08/28 00:28:03;;;;;;;;;;;;;;;12.39;85.25;96926.19;30001;983;1884;-54
2021/08/28 00:28:34;;;;;;;;;;;;;;;12.41;85.37;96918.53;30001;983;1879;-65
2021/08/28 00:29:05;;;;;;;;;;;;;;;12.43;85.05;96920.97;30001;983;1884;-57
2021/08/28 00:29:36;;;;;;;;;;;;;;;12.43;85.27;96920.16;30001;983;1880;-56
2021/08/28 00:30:08;;;;;;;;;;;;;;;12.47;84.98;96916.53;30001;983;1884;-57
2021/08/28 00:30:42;;;;;;;;;;;;;;;12.48;84.95;96923.56;30001;983;1880;-57
2021/08/28 00:31:13;;;;;;;;;;;;;;;12.46;84.95;96920.34;30001;982;1884;-57
2021/08/28 00:31:44;;;;;;;;;;;;;;;12.46;85.14;96919.56;30001;982;1880;-65
2021/08/28 00:32:15;;;;;;;;;;;;;;;12.44;85.16;96921.75;30001;982;1867;-65
2021/08/28 00:32:47;;;;;;;;;;;;;;;12.43;85.36;96926.41;30001;982;1875;-56
2021/08/28 00:33:17;;;;;;;;;;;;;;;12.43;85.06;96920.16;30001;963;1813;-59
2021/08/28 00:33:49;;;;;;;;;;;;;;;12.41;85.21;96923.19;30001;982;1880;-64
2021/08/28 00:34:21;;;;;;;;;;;;;;;12.43;85.24;96920.16;30001;983;1884;-57
2021/08/28 00:34:52;;;;;;;;;;;;;;;12.46;84.51;96920.34;30001;983;1862;-66
2021/08/28 00:35:23;;;;;;;;;;;;;;;12.46;84.70;96925.00;30001;983;1879;-56
2021/08/28 00:35:54;;;;;;;;;;;;;;;12.46;84.41;96923.06;30001;983;1879;-65
2021/08/28 00:36:25;;;;;;;;;;;;;;;12.50;84.43;96913.16;30001;983;1884;-67
2021/08/28 00:36:55;;;;;;;;;;;;;;;12.51;84.39;96914.78;30001;983;1879;-57
2021/08/28 00:37:27;;;;;;;;;;;;;;;12.50;84.06;96915.88;30001;983;1884;-59
2021/08/28 00:37:57;;;;;;;;;;;;;;;12.49;84.30;96919.72;30001;983;1841;-56
2021/08/28 00:38:28;;;;;;;;;;;;;;;12.47;84.24;96926.59;30001;983;1884;-57
2021/08/28 00:39:00;;;;;;;;;;;;;;;12.47;84.28;96926.59;30001;982;1862;-65
2021/08/28 00:39:30;;;;;;;;;;;;;;;12.44;84.72;96922.56;30001;982;1880;-69
2021/08/28 00:40:01;;;;;;;;;;;;;;;12.45;84.47;96918.75;30001;982;1880;-65
2021/08/28 00:40:33;;;;;;;;;;;;;;;12.45;84.52;96923.38;30001;982;1884;-64
2021/08/28 00:41:04;;;;;;;;;;;;;;;12.44;84.68;96922.56;30001;982;1880;-64
2021/08/28 00:41:35;;;;;;;;;;;;;;;12.45;84.73;96924.19;30001;982;1867;-65
2021/08/28 00:42:06;;;;;;;;;;;;;;;12.51;84.28;96917.50;30001;983;1875;-62
2021/08/28 00:42:48;;;;;;;;;;;;;;;12.53;83.96;96919.91;30001;983;1884;-67
2021/08/28 00:43:19;;;;;;;;;;;;;;;12.56;84.13;96920.13;30001;983;1879;-56
2021/08/28 00:43:49;;;;;;;;;;;;;;;12.57;83.71;96918.22;30001;983;1884;-60
2021/08/28 00:44:20;;;;;;;;;;;;;;;12.57;83.82;96927.19;30001;983;1879;-58
2021/08/28 00:44:52;;;;;;;;;;;;;;;12.61;83.63;96916.50;30001;983;1884;-66
2021/08/28 00:45:24;;;;;;;;;;;;;;;12.57;83.69;96929.91;30001;983;1880;-56
2021/08/28 00:45:55;;;;;;;;;;;;;;;12.53;83.64;96915.28;30001;983;1884;-58
2021/08/28 00:46:26;;;;;;;;;;;;;;;12.51;83.87;96917.50;30001;982;1862;-65
2021/08/28 00:46:57;;;;;;;;;;;;;;;12.50;84.19;96917.81;30001;982;1880;-58
2021/08/28 00:47:28;;;;;;;;;;;;;;;12.52;84.07;96919.13;30001;982;1880;-59
2021/08/28 00:48:06;;;;;;;;;;;;;;;12.59;83.53;96924.16;30001;982;1867;-57
2021/08/28 00:48:37;;;;;;;;;;;;;;;12.59;83.32;96916.78;30001;983;1875;-66
2021/08/28 00:49:08;;;;;;;;;;;;;;;12.61;83.16;96919.22;30001;983;1883;-66
2021/08/28 00:49:39;;;;;;;;;;;;;;;12.61;83.24;96920.00;30001;983;1879;-58
2021/08/28 00:50:10;;;;;;;;;;;;;;;12.59;83.66;96922.25;30001;983;1884;-58
2021/08/28 00:50:42;;;;;;;;;;;;;;;12.59;83.57;96922.25;30001;983;1879;-56
2021/08/28 00:51:13;;;;;;;;;;;;;;;12.60;83.31;96923.84;30001;983;1866;-57
2021/08/28 00:51:45;;;;;;;;;;;;;;;12.59;83.50;96919.50;30001;983;1875;-62
2021/08/28 00:52:17;;;;;;;;;;;;;;;12.57;83.23;96921.72;30001;983;1793;-63
2021/08/28 00:52:49;;;;;;;;;;;;;;;12.57;83.41;96923.66;30001;983;1880;-57
2021/08/28 00:53:20;;;;;;;;;;;;;;;12.53;83.18;96915.28;30001;983;1884;-58
2021/08/28 00:53:52;;;;;;;;;;;;;;;12.54;83.59;96914.19;30001;982;1880;-66
2021/08/28 00:54:23;;;;;;;;;;;;;;;12.54;83.58;96916.09;30001;982;1884;-57
2021/08/28 00:54:53;;;;;;;;;;;;;;;12.51;83.69;96909.34;30001;982;1880;-57
2021/08/28 00:55:25;;;;;;;;;;;;;;;12.48;83.62;96918.09;30001;982;1884;-65
2021/08/28 00:55:58;;;;;;;;;;;;;;;12.47;83.83;96921.97;30001;982;1862;-64
2021/08/28 00:56:29;;;;;;;;;;;;;;;12.45;84.05;96912.50;30001;983;1862;-67
2021/08/28 00:57:03;;;;;;;;;;;;;;;12.41;84.60;96907.66;30001;983;1879;-65
2021/08/28 00:57:34;;;;;;;;;;;;;;;12.39;84.01;96915.31;30001;983;1884;-63
2021/08/28 00:58:05;;;;;;;;;;;;;;;12.39;84.21;96911.78;30001;969;1900;-55
2021/08/28 00:58:36;;;;;;;;;;;;;;;12.39;84.37;96917.22;30001;983;1884;-71
2021/08/28 00:59:07;;;;;;;;;;;;;;;12.39;84.50;96914.50;30001;983;1879;-56
2021/08/28 00:59:41;;;;;;;;;;;;;;;12.41;84.31;96917.72;30001;983;1884;-56
2021/08/28 01:00:12;;;;;;;;;;;;;;;12.41;84.31;96920.47;30001;983;1880;-57
2021/08/28 01:00:45;;;;;;;;;;;;;;;12.39;84.12;96903.62;30001;983;1884;-63
2021/08/28 01:01:18;;;;;;;;;;;;;;;12.40;84.17;96910.69;30001;982;1862;-64
2021/08/28 01:01:50;;;;;;;;;;;;;;;12.41;84.18;96909.56;30001;982;1880;-64
2021/08/28 01:02:23;;;;;;;;;;;;;;;12.41;84.14;96906.84;30001;982;1880;-57
2021/08/28 01:02:54;;;;;;;;;;;;;;;12.42;84.01;96919.34;30001;982;1884;-65
2021/08/28 01:03:27;;;;;;;;;;;;;;;12.43;84.23;96912.78;30001;982;1880;-55
2021/08/28 01:03:59;;;;;;;;;;;;;;;12.43;83.89;96904.63;30001;983;1883;-65
2021/08/28 01:04:38;;;;;;;;;;;;;;;12.41;83.99;96904.94;30001;983;1879;-65
2021/08/28 01:05:18;;;;;;;;;;;;;;;12.41;84.02;96912.28;30001;983;1866;-65
2021/08/28 01:05:58;;;;;;;;;;;;;;;12.41;84.12;96899.50;30001;983;1875;-66
2021/08/28 01:06:35;;;;;;;;;;;;;;;12.43;83.86;96906.56;30001;983;1884;-64
2021/08/28 01:07:16;;;;;;;;;;;;;;;12.42;84.06;96903.03;30001;983;1880;-63
2021/08/28 01:07:59;;;;;;;;;;;;;;;12.46;83.33;96904.03;30001;983;1884;-64
2021/08/28 01:08:48;;;;;;;;;;;;;;;12.47;83.50;96904.84;30001;983;1880;-65
2021/08/28 01:09:34;;;;;;;;;;;;;;;12.47;83.28;96905.63;30001;982;1858;-64
2021/08/28 01:10:06;;;;;;;;;;;;;;;12.46;83.78;96905.94;30001;982;1876;-57
2021/08/28 01:10:39;;;;;;;;;;;;;;;12.46;83.51;96914.91;30001;982;1884;-57
2021/08/28 01:11:42;;;;;;;;;;;;;;;12.45;83.74;96907.84;30001;982;1880;-65
2021/08/28 01:12:25;;;;;;;;;;;;;;;12.44;83.99;96911.69;30001;983;1862;-56
2021/08/28 01:12:58;;;;;;;;;;;;;;;12.43;83.84;96904.63;30001;983;1875;-57
2021/08/28 01:13:32;;;;;;;;;;;;;;;12.40;83.69;96905.25;30001;983;1884;-56
2021/08/28 01:14:07;;;;;;;;;;;;;;;12.41;84.12;96915.00;30001;983;1879;-58
2021/08/28 01:14:40;;;;;;;;;;;;;;;12.39;83.73;96904.44;30001;983;1884;-57
2021/08/28 01:15:13;;;;;;;;;;;;;;;12.40;83.93;96921.56;30001;983;1880;-57
2021/08/28 01:15:45;;;;;;;;;;;;;;;12.39;83.86;96917.22;30001;983;1867;-58
2021/08/28 01:16:18;;;;;;;;;;;;;;;12.38;83.99;96913.69;30001;983;1875;-59
2021/08/28 01:16:54;;;;;;;;;;;;;;;12.39;83.84;96914.50;30001;982;1884;-63
2021/08/28 01:17:26;;;;;;;;;;;;;;;12.40;84.16;96905.25;30001;982;1880;-66
2021/08/28 01:17:57;;;;;;;;;;;;;;;12.41;84.15;96912.28;30001;982;1884;-58
2021/08/28 01:18:29;;;;;;;;;;;;;;;12.37;84.39;96917.53;30001;982;1880;-64
2021/08/28 01:19:00;;;;;;;;;;;;;;;12.37;84.36;96903.12;30001;983;1883;-64
2021/08/28 01:19:43;;;;;;;;;;;;;;;12.37;84.28;96905.84;30001;983;1879;-58
2021/08/28 01:20:23;;;;;;;;;;;;;;;12.39;83.90;96900.91;30001;983;1866;-56
2021/08/28 01:21:03;;;;;;;;;;;;;;;12.41;84.10;96912.28;30001;983;1875;-67
2021/08/28 01:21:37;;;;;;;;;;;;;;;12.44;83.93;96911.69;30001;983;1884;-57
2021/08/28 01:22:13;;;;;;;;;;;;;;;12.47;83.51;96905.63;30001;983;1879;-70
2021/08/28 01:22:45;;;;;;;;;;;;;;;12.51;83.26;96912.06;30001;983;1866;-59
2021/08/28 01:23:17;;;;;;;;;;;;;;;12.51;83.15;96906.63;30001;982;1875;-64
2021/08/28 01:23:48;;;;;;;;;;;;;;;12.51;83.08;96912.06;30001;982;1884;-71
2021/08/28 01:24:19;;;;;;;;;;;;;;;12.51;83.34;96911.25;30001;982;1880;-63
2021/08/28 01:24:50;;;;;;;;;;;;;;;12.51;83.20;96912.06;30001;982;1884;-59
2021/08/28 01:25:22;;;;;;;;;;;;;;;12.49;83.28;96903.38;30001;982;1880;-69
2021/08/28 01:25:54;;;;;;;;;;;;;;;12.45;83.35;96907.84;30001;982;1884;-62
2021/08/28 01:26:27;;;;;;;;;;;;;;;12.43;83.75;96910.06;30001;983;1879;-65
2021/08/28 01:27:00;;;;;;;;;;;;;;;12.42;83.73;96903.03;30001;983;1884;-66
2021/08/28 01:27:45;;;;;;;;;;;;;;;12.40;84.07;96910.69;30001;983;1879;-63
2021/08/28 01:28:18;;;;;;;;;;;;;;;12.40;83.87;96902.53;30001;983;1866;-58
2021/08/28 01:28:53;;;;;;;;;;;;;;;12.39;83.93;96909.06;30001;983;1875;-60
2021/08/28 01:29:32;;;;;;;;;;;;;;;12.40;83.83;96911.50;30001;983;1884;-64
2021/08/28 01:30:03;;;;;;;;;;;;;;;12.44;83.67;96905.44;30001;983;1880;-57
2021/08/28 01:30:35;;;;;;;;;;;;;;;12.43;83.50;96910.06;30001;982;1884;-56
2021/08/28 01:31:06;;;;;;;;;;;;;;;12.43;83.71;96903.81;30001;982;1880;-67
2021/08/28 01:31:37;;;;;;;;;;;;;;;12.41;83.84;96912.28;30001;982;1884;-69
2021/08/28 01:32:09;;;;;;;;;;;;;;;12.43;83.78;96909.28;30001;982;1880;-57
2021/08/28 01:32:42;;;;;;;;;;;;;;;12.46;83.51;96912.19;30001;982;1884;-68
2021/08/28 01:33:14;;;;;;;;;;;;;;;12.47;83.62;96908.34;30001;982;1880;-64
2021/08/28 01:33:45;;;;;;;;;;;;;;;12.46;83.69;96905.94;30001;982;1867;-65
2021/08/28 01:34:18;;;;;;;;;;;;;;;12.41;83.80;96912.28;30001;983;1857;-57
2021/08/28 01:34:49;;;;;;;;;;;;;;;12.37;83.95;96909.38;30001;983;1884;-57
2021/08/28 01:35:21;;;;;;;;;;;;;;;12.37;84.01;96917.53;30001;983;1879;-68
2021/08/28 01:35:53;;;;;;;;;;;;;;;12.39;83.82;96911.78;30001;983;1884;-63
2021/08/28 01:36:25;;;;;;;;;;;;;;;12.38;83.94;96912.91;30001;983;1880;-61
2021/08/28 01:36:57;;;;;;;;;;;;;;;12.39;83.86;96915.31;30001;983;1884;-67
2021/08/28 01:37:29;;;;;;;;;;;;;;;12.40;84.03;96910.69;30001;983;1880;-66
2021/08/28 01:38:01;;;;;;;;;;;;;;;12.38;83.71;96908.25;30001;983;1884;-59
2021/08/28 01:38:32;;;;;;;;;;;;;;;12.40;83.81;96905.25;30001;982;1880;-59
2021/08/28 01:39:04;;;;;;;;;;;;;;;12.39;83.78;96909.88;30001;982;1884;-57
2021/08/28 01:39:35;;;;;;;;;;;;;;;12.38;84.03;96905.53;30001;982;1862;-56
2021/08/28 01:40:07;;;;;;;;;;;;;;;12.41;83.74;96909.56;30001;982;1880;-65
2021/08/28 01:40:39;;;;;;;;;;;;;;;12.39;83.92;96919.94;30001;982;1880;-57
2021/08/28 01:41:10;;;;;;;;;;;;;;;12.39;83.83;96914.50;30001;982;1884;-67
2021/08/28 01:41:46;;;;;;;;;;;;;;;12.40;84.01;96916.13;30001;983;1879;-67
2021/08/28 01:42:17;;;;;;;;;;;;;;;12.38;83.83;96913.69;30001;983;1884;-65
2021/08/28 01:42:48;;;;;;;;;;;;;;;12.39;83.99;96914.50;30001;983;1879;-57
2021/08/28 01:43:21;;;;;;;;;;;;;;;12.38;84.05;96910.19;30001;976;1882;-63
2021/08/28 01:43:52;;;;;;;;;;;;;;;12.36;83.98;96913.19;30001;983;1875;-57
2021/08/28 01:44:24;;;;;;;;;;;;;;;12.34;83.82;96912.69;30001;983;1884;-65
2021/08/28 01:44:57;;;;;;;;;;;;;;;12.35;84.26;96916.22;30001;983;1880;-60
2021/08/28 01:45:28;;;;;;;;;;;;;;;12.33;84.13;96904.84;30001;983;1884;-65
2021/08/28 01:46:00;;;;;;;;;;;;;;;12.33;84.47;96910.28;30001;982;1880;-57
2021/08/28 01:46:30;;;;;;;;;;;;;;;12.33;84.18;96910.28;30001;982;1884;-56
2021/08/28 01:47:02;;;;;;;;;;;;;;;12.33;84.44;96911.09;30001;982;1862;-64
2021/08/28 01:47:34;;;;;;;;;;;;;;;12.34;84.19;96911.88;30001;982;1880;-63
2021/08/28 01:48:05;;;;;;;;;;;;;;;12.35;84.39;96908.06;30001;982;1880;-56
2021/08/28 01:48:37;;;;;;;;;;;;;;;12.37;84.37;96906.66;30001;982;1884;-58
2021/08/28 01:49:09;;;;;;;;;;;;;;;12.38;84.04;96902.00;30001;983;1879;-65
2021/08/28 01:49:40;;;;;;;;;;;;;;;12.37;83.93;96908.56;30001;983;1884;-65
2021/08/28 01:50:15;;;;;;;;;;;;;;;12.39;83.90;96907.16;30001;983;1879;-66
2021/08/28 01:50:46;;;;;;;;;;;;;;;12.38;83.56;96910.97;30001;983;1884;-67
2021/08/28 01:51:17;;;;;;;;;;;;;;;12.40;83.86;96899.78;30001;983;1879;-65
2021/08/28 01:51:48;;;;;;;;;;;;;;;12.42;83.39;96897.59;30001;983;1884;-57
2021/08/28 01:52:20;;;;;;;;;;;;;;;12.40;83.47;96899.78;30001;983;1862;-66
2021/08/28 01:52:51;;;;;;;;;;;;;;;12.37;83.41;96897.69;30001;983;1880;-65
2021/08/28 01:53:21;;;;;;;;;;;;;;;12.36;83.64;96898.78;30001;982;1880;-69
2021/08/28 01:53:52;;;;;;;;;;;;;;;12.34;83.87;96901.81;30001;982;1884;-56
2021/08/28 01:54:23;;;;;;;;;;;;;;;12.33;84.45;96904.84;30001;982;1880;-57
2021/08/28 01:54:54;;;;;;;;;;;;;;;12.31;84.40;96901.63;30001;982;1884;-57
2021/08/28 01:55:25;;;;;;;;;;;;;;;12.28;84.24;96905.75;30001;982;1880;-58
2021/08/28 01:55:58;;;;;;;;;;;;;;;12.29;84.34;96904.63;30001;985;1875;-57
2021/08/28 01:56:30;;;;;;;;;;;;;;;12.28;84.76;96904.94;30001;983;1883;-65
2021/08/28 01:57:02;;;;;;;;;;;;;;;12.27;84.82;96906.84;30001;983;1862;-57
2021/08/28 01:57:33;;;;;;;;;;;;;;;12.25;84.65;96902.81;30001;983;1879;-57
2021/08/28 01:58:05;;;;;;;;;;;;;;;12.24;84.56;96901.19;30001;983;1879;-57
2021/08/28 01:58:37;;;;;;;;;;;;;;;12.24;84.85;96912.09;30001;983;1884;-65
2021/08/28 01:59:08;;;;;;;;;;;;;;;12.24;84.69;96901.19;30001;983;1880;-57
2021/08/28 01:59:39;;;;;;;;;;;;;;;12.23;85.00;96905.03;30001;983;1884;-65
2021/08/28 02:00:11;;;;;;;;;;;;;;;12.22;85.04;96903.41;30001;983;1862;-57
2021/08/28 02:00:41;;;;;;;;;;;;;;;12.21;85.00;96907.25;30001;983;1880;-57
2021/08/28 02:01:12;;;;;;;;;;;;;;;12.21;84.86;96907.25;30001;982;1880;-57
2021/08/28 02:01:43;;;;;;;;;;;;;;;12.20;85.27;96903.72;30001;982;1884;-65
2021/08/28 02:02:14;;;;;;;;;;;;;;;12.21;85.12;96904.53;30001;982;1862;-66
2021/08/28 02:02:45;;;;;;;;;;;;;;;12.22;85.04;96903.41;30001;982;1880;-66
2021/08/28 02:03:16;;;;;;;;;;;;;;;12.22;84.91;96903.41;30001;983;1879;-58
2021/08/28 02:03:47;;;;;;;;;;;;;;;12.24;84.83;96903.94;30001;983;1883;-65
2021/08/28 02:04:17;;;;;;;;;;;;;;;12.25;84.87;96908.25;30001;983;1785;-65
2021/08/28 02:04:49;;;;;;;;;;;;;;;12.25;84.87;96897.38;30001;983;1883;-64
2021/08/28 02:05:20;;;;;;;;;;;;;;;12.24;85.06;96903.94;30001;983;1879;-65
2021/08/28 02:05:55;;;;;;;;;;;;;;;12.24;85.03;96895.75;30001;983;1884;-65
2021/08/28 02:06:38;;;;;;;;;;;;;;;12.25;84.74;96905.53;30001;983;1879;-57
2021/08/28 02:07:44;;;;;;;;;;;;;;;12.27;84.71;96906.03;30001;983;1866;-61
2021/08/28 02:08:17;;;;;;;;;;;;;;;12.35;84.09;96899.91;30001;983;1871;-62
2021/08/28 02:08:51;;;;;;;;;;;;;;;12.34;84.02;96899.09;30001;982;1884;-65
2021/08/28 02:09:46;;;;;;;;;;;;;;;12.32;84.21;96908.66;30001;982;1880;-57
2021/08/28 02:10:36;;;;;;;;;;;;;;;12.32;84.31;96903.22;30001;982;1884;-64
2021/08/28 02:11:14;;;;;;;;;;;;;;;12.29;84.53;96909.28;30001;983;1879;-65
2021/08/28 02:11:52;;;;;;;;;;;;;;;12.29;84.48;96906.53;30001;983;1884;-58
2021/08/28 02:12:33;;;;;;;;;;;;;;;12.26;84.91;96899.00;30001;983;1861;-58
2021/08/28 02:13:10;;;;;;;;;;;;;;;12.26;84.64;96909.88;30001;983;1879;-64
2021/08/28 02:13:45;;;;;;;;;;;;;;;12.30;84.53;96900.00;30001;983;1800;-63
2021/08/28 02:14:21;;;;;;;;;;;;;;;12.32;84.27;96900.50;30001;983;1884;-68
2021/08/28 02:15:12;;;;;;;;;;;;;;;12.33;84.29;96908.38;30001;983;1880;-65
2021/08/28 02:15:47;;;;;;;;;;;;;;;12.32;83.97;96904.03;30001;983;1867;-64
2021/08/28 02:16:21;;;;;;;;;;;;;;;12.30;84.43;96889.13;30001;982;1875;-63
2021/08/28 02:16:53;;;;;;;;;;;;;;;12.26;84.72;96899.00;30001;982;1884;-65
2021/08/28 02:17:25;;;;;;;;;;;;;;;12.25;84.65;96902.81;30001;982;1880;-63
2021/08/28 02:18:04;;;;;;;;;;;;;;;12.23;84.91;96902.31;30001;982;1884;-64
2021/08/28 02:18:44;;;;;;;;;;;;;;;12.21;84.89;96896.38;30001;983;1879;-66
2021/08/28 02:19:20;;;;;;;;;;;;;;;12.21;85.05;96897.16;30001;983;1866;-65
2021/08/28 02:19:53;;;;;;;;;;;;;;;12.20;84.88;96902.91;30001;983;1875;-66
2021/08/28 02:20:26;;;;;;;;;;;;;;;12.19;85.16;96904.03;30001;983;1884;-65
2021/08/28 02:20:59;;;;;;;;;;;;;;;12.16;84.96;96899.19;30001;983;1879;-63
2021/08/28 02:21:30;;;;;;;;;;;;;;;12.15;85.41;96898.37;30001;983;1884;-66
2021/08/28 02:22:09;;;;;;;;;;;;;;;12.15;85.19;96903.00;30001;983;1880;-63
2021/08/28 02:22:42;;;;;;;;;;;;;;;12.15;85.52;96900.28;30001;983;1884;-64
2021/08/28 02:23:19;;;;;;;;;;;;;;;12.15;85.55;96905.72;30001;986;1849;-65
2021/08/28 02:24:11;;;;;;;;;;;;;;;12.15;85.75;96903.00;30001;982;1875;-64
2021/08/28 02:24:45;;;;;;;;;;;;;;;12.16;85.18;96904.63;30001;982;1876;-66
2021/08/28 02:25:22;;;;;;;;;;;;;;;12.14;85.52;96907.66;30001;982;1880;-66
2021/08/28 02:26:04;;;;;;;;;;;;;;;12.16;85.38;96910.06;30001;982;1875;-65
2021/08/28 02:26:44;;;;;;;;;;;;;;;12.16;85.76;96916.31;30001;983;1879;-56
2021/08/28 02:27:30;;;;;;;;;;;;;;;12.15;85.50;96903.00;30001;983;1875;-66
2021/08/28 02:28:03;;;;;;;;;;;;;;;12.13;85.60;96907.97;30001;983;1862;-65
2021/08/28 02:28:56;;;;;;;;;;;;;;;12.13;85.39;96911.47;30001;983;1871;-66
2021/08/28 02:29:48;;;;;;;;;;;;;;;12.14;85.87;96906.84;30001;983;1880;-63
2021/08/28 02:30:20;;;;;;;;;;;;;;;12.13;85.45;96910.69;30001;982;1875;-66
2021/08/28 02:30:52;;;;;;;;;;;;;;;12.15;85.88;96911.16;30001;982;1880;-64
2021/08/28 02:31:24;;;;;;;;;;;;;;;12.15;85.65;96908.44;30001;982;1875;-63
2021/08/28 02:31:59;;;;;;;;;;;;;;;12.14;85.91;96907.66;30001;982;1880;-64
2021/08/28 02:32:30;;;;;;;;;;;;;;;12.17;85.65;96906.25;30001;982;1876;-65
2021/08/28 02:33:04;;;;;;;;;;;;;;;12.17;85.65;96911.69;30001;982;1863;-64
2021/08/28 02:33:35;;;;;;;;;;;;;;;12.18;85.44;96914.09;30001;983;1870;-64
2021/08/28 02:34:07;;;;;;;;;;;;;;;12.22;85.50;96903.41;30001;983;1879;-63
2021/08/28 02:34:39;;;;;;;;;;;;;;;12.24;85.08;96907.44;30001;983;1875;-65
2021/08/28 02:35:10;;;;;;;;;;;;;;;12.24;84.96;96902.00;30001;983;1879;-63
2021/08/28 02:35:43;;;;;;;;;;;;;;;12.24;85.28;96902.00;30001;983;1857;-65
2021/08/28 02:36:14;;;;;;;;;;;;;;;12.23;85.31;96902.31;30001;983;1875;-66
2021/08/28 02:36:46;;;;;;;;;;;;;;;12.21;84.96;96907.25;30001;983;1875;-65
2021/08/28 02:37:17;;;;;;;;;;;;;;;12.20;85.36;96901.00;30001;983;1880;-65
2021/08/28 02:37:50;;;;;;;;;;;;;;;12.19;85.45;96909.47;30001;982;1875;-66
2021/08/28 02:38:22;;;;;;;;;;;;;;;12.19;85.60;96909.47;30001;982;1880;-57
2021/08/28 02:38:54;;;;;;;;;;;;;;;12.20;85.31;96905.63;30001;982;1876;-64
2021/08/28 02:39:25;;;;;;;;;;;;;;;12.21;85.26;96907.25;30001;982;1880;-63
2021/08/28 02:39:58;;;;;;;;;;;;;;;12.25;85.01;96902.81;30001;982;1876;-64
2021/08/28 02:40:29;;;;;;;;;;;;;;;12.25;85.17;96908.25;30001;982;1880;-63
2021/08/28 02:41:02;;;;;;;;;;;;;;;12.26;85.22;96901.72;30001;983;1857;-66
2021/08/28 02:41:33;;;;;;;;;;;;;;;12.25;85.16;96902.81;30001;983;1875;-65
2021/08/28 02:42:05;;;;;;;;;;;;;;;12.25;85.29;96898.19;30001;983;1875;-63
2021/08/28 02:42:38;;;;;;;;;;;;;;;12.25;85.25;96908.25;30001;983;1879;-63
2021/08/28 02:43:09;;;;;;;;;;;;;;;12.27;84.96;96911.47;30001;983;1875;-68
2021/08/28 02:43:41;;;;;;;;;;;;;;;12.28;84.96;96902.22;30001;983;1880;-65
2021/08/28 02:44:12;;;;;;;;;;;;;;;12.29;84.97;96899.19;30001;983;1858;-65
2021/08/28 02:44:44;;;;;;;;;;;;;;;12.28;84.80;96907.66;30001;983;1875;-64
2021/08/28 02:45:17;;;;;;;;;;;;;;;12.28;84.91;96904.94;30001;982;1875;-67
2021/08/28 02:45:49;;;;;;;;;;;;;;;12.27;85.01;96906.03;30001;982;1880;-65
2021/08/28 02:46:20;;;;;;;;;;;;;;;12.25;85.23;96903.62;30001;982;1858;-64
2021/08/28 02:46:52;;;;;;;;;;;;;;;12.26;84.92;96901.72;30001;982;1858;-64
2021/08/28 02:47:24;;;;;;;;;;;;;;;12.24;84.88;96902.00;30001;982;1876;-67
2021/08/28 02:47:56;;;;;;;;;;;;;;;12.25;85.07;96902.81;30001;982;1863;-63
2021/08/28 02:48:29;;;;;;;;;;;;;;;12.24;84.99;96902.00;30001;982;1871;-68
2021/08/28 02:49:04;;;;;;;;;;;;;;;12.29;84.77;96898.37;30001;983;1879;-66
2021/08/28 02:49:37;;;;;;;;;;;;;;;12.29;84.86;96901.09;30001;983;1875;-65
2021/08/28 02:50:10;;;;;;;;;;;;;;;12.29;85.18;96903.81;30001;983;1879;-65
2021/08/28 02:50:42;;;;;;;;;;;;;;;12.28;84.88;96905.75;30001;983;1875;-65
2021/08/28 02:51:13;;;;;;;;;;;;;;;12.30;84.95;96897.28;30001;983;1880;-66
2021/08/28 02:51:44;;;;;;;;;;;;;;;12.33;84.91;96910.28;30001;983;1858;-64
2021/08/28 02:52:17;;;;;;;;;;;;;;;12.31;84.93;96904.34;30001;983;1875;-64
2021/08/28 02:52:48;;;;;;;;;;;;;;;12.29;84.70;96904.63;30001;982;1875;-65
2021/08/28 02:53:20;;;;;;;;;;;;;;;12.28;85.03;96904.94;30001;982;1862;-64
2021/08/28 02:53:52;;;;;;;;;;;;;;;12.29;84.86;96903.81;30001;982;1871;-64
2021/08/28 02:54:24;;;;;;;;;;;;;;;12.26;85.23;96904.44;30001;982;1880;-66
2021/08/28 02:55:00;;;;;;;;;;;;;;;12.25;85.29;96909.06;30001;982;1858;-66
2021/08/28 02:55:31;;;;;;;;;;;;;;;12.22;85.56;96906.94;30001;982;1876;-66
2021/08/28 02:56:03;;;;;;;;;;;;;;;12.25;85.08;96902.81;30001;982;1876;-64
2021/08/28 02:56:34;;;;;;;;;;;;;;;12.26;85.08;96902.50;30001;983;1862;-64
2021/08/28 02:57:06;;;;;;;;;;;;;;;12.26;85.46;96904.44;30001;983;1871;-64
2021/08/28 02:57:39;;;;;;;;;;;;;;;12.27;85.38;96911.47;30001;962;1900;-64